Michalis L — A8TZ8 — position and weather

sailwx.info

Track history (hours):
 
Tides and Currents Weather Stations Pressure Air Temp Water Temp Dewpoint Dewpoint Depression Visibility Wind Speed Wind Dir Waves Ship Positions

Michalis L

Last reported at 2014-Dec-30 14:32 UTC. Time now 2015-Feb-27 15:23 UTC.
Position S 29°44' E 031°44'.
Warning: this ship's position is 59 days out of date.

Length 230 m; draft 13.9 m.

Type: Cargo ship. MMSI: 636014462.

Date/timePositionNaut miles runAvg speedWind from/ knotsBaromVisibWave heightAir tempDewpointWater temp
2014-Dec-30 14:32S 29°44' E 031°44'9 9.1
2014-Dec-30 13:33S 29°46' E 031°34'1110.9
2014-Dec-30 12:33S 29°47' E 031°22'9 8.8
2014-Dec-30 11:33S 29°49' E 031°12'1 1.2
2014-Dec-30 10:21S 29°50' E 031°11'1 1.7
2014-Dec-30 09:33S 29°51' E 031°10'1 0.9
2014-Dec-30 08:33S 29°51' E 031°11'2 1.8
2014-Dec-30 07:33S 29°52' E 031°09'2 1.7
2014-Dec-30 06:33S 29°51' E 031°09'1 1.5
2014-Dec-30 05:33S 29°51' E 031°08'6 6.5
2014-Dec-30 04:33S 29°58' E 031°08'7 6.5
2014-Dec-30 03:33S 30°04' E 031°08'6 5.8
2014-Dec-30 02:33S 30°10' E 031°08'5 5.4
2014-Dec-30 01:33S 30°16' E 031°08'6 5.4
2014-Dec-30 00:30S 30°21' E 031°08'45 4.9
2014-Dec-29 15:24S 31°03' E 030°48'6 5.3
2014-Dec-29 14:20S 31°07' E 030°44'116 7.2
2014-Dec-28 22:18S 32°31' E 029°10'17 5.6
2014-Dec-28 19:19S 32°43' E 028°56'31 6.1
2014-Dec-28 14:14S 33°05' E 028°31'4 5.7
2014-Dec-28 13:33S 33°08' E 028°28'172 7.5
2014-Dec-27 14:28S 34°22' E 025°21'  
Track history (hours):
 
Tides and Currents Weather Stations Pressure Air Temp Water Temp Dewpoint Dewpoint Depression Visibility Wind Speed Wind Dir Waves Ship Positions

Michalis L

Last reported at 2014-Dec-30 14:32 UTC. Time now 2015-Feb-27 15:23 UTC.
Position S 29°44' E 031°44'.
Warning: this ship's position is 59 days out of date.

Length 230 m; draft 13.9 m.

Type: Cargo ship. MMSI: 636014462.

Date/timePositionNaut miles runAvg speedWind from/ knotsBaromVisibWave heightAir tempDewpointWater temp
2014-Dec-30 14:32S 29°44' E 031°44'9 9.1
2014-Dec-30 13:33S 29°46' E 031°34'1110.9
2014-Dec-30 12:33S 29°47' E 031°22'9 8.8
2014-Dec-30 11:33S 29°49' E 031°12'1 1.2
2014-Dec-30 10:21S 29°50' E 031°11'1 1.7
2014-Dec-30 09:33S 29°51' E 031°10'1 0.9
2014-Dec-30 08:33S 29°51' E 031°11'2 1.8
2014-Dec-30 07:33S 29°52' E 031°09'2 1.7
2014-Dec-30 06:33S 29°51' E 031°09'1 1.5
2014-Dec-30 05:33S 29°51' E 031°08'6 6.5
2014-Dec-30 04:33S 29°58' E 031°08'7 6.5
2014-Dec-30 03:33S 30°04' E 031°08'6 5.8
2014-Dec-30 02:33S 30°10' E 031°08'5 5.4
2014-Dec-30 01:33S 30°16' E 031°08'6 5.4
2014-Dec-30 00:30S 30°21' E 031°08'45 4.9
2014-Dec-29 15:24S 31°03' E 030°48'6 5.3
2014-Dec-29 14:20S 31°07' E 030°44'116 7.2
2014-Dec-28 22:18S 32°31' E 029°10'17 5.6
2014-Dec-28 19:19S 32°43' E 028°56'31 6.1
2014-Dec-28 14:14S 33°05' E 028°31'4 5.7
2014-Dec-28 13:33S 33°08' E 028°28'172 7.5
2014-Dec-27 14:28S 34°22' E 025°21'  

Dump ship's entire track history